Seattle, WA

8:11 AM PDT on October 31, 2014 (GMT -0700)
Boeing Field-King County International | Change Station
CLOSE
Current Station
Airport
Location: Seattle Boeing,
Elevation: 16 ft
Nearby Weather Stations

Elev 16 ft 47.53 °N, 122.30 °W | Updated 18 minutes ago

Rain
Rain
54 °F
Feels Like 54 °F
N
4
Wind Variable Wind from West

Today
High -- | Low -- °F
--% Chance of Precip.
Yesterday
High -- | Low -- °F
Precip. -- in
7:51 AM 5:53 PM
First Quarter, 56% visible
Pressure 29.70 in
Visibility 3.0 miles
Clouds Mostly Cloudy 600 ft
Dew Point 50 °F
Humidity 86%
Rainfall 0.38 in
Snow Depth Not available.
UV 0 out of 12
Pollen .30 out of 12
Air Quality Not available.
Flu Activity Not available.
METAR KBFI 311453Z 27003KT 3SM RA BR BKN006 12/10 A2970 RMK AO2 SLP056 P0007 60012 T01220100 55005

More Conditions Fewer Conditions

Pressure 29.70 in
Visibility 3.0 miles
Clouds Mostly Cloudy 600 ft
Dew Point 50 °F
Humidity 86%
Rainfall 0.38 in
Snow Depth Not available.
UV 0 out of 12
Pollen .30 out of 12
Air Quality Not available.
Flu Activity Not available.
METAR KBFI 311453Z 27003KT 3SM RA BR BKN006 12/10 A2970 RMK AO2 SLP056 P0007 60012 T01220100 55005

More Conditions Fewer Conditions

10-Day Weather Forecast

Almanac

Astronomy

Oct. 31, 2014 Rise Set
Actual Time
Civil Twilight
Nautical Twilight
Astronomical Twilight
Moon
Length of Visible Light
Length of Day
Tomorrow will be .
, % of the Moon is Illuminated

Today's Extremes

State Highs State Lows

Community

WunderPhotos

Upload Photos

1,766,633 photos uploaded!

WunderBlogs® & News

Nearby

Air Quality

  Air Quality AQ Index Pollutant
Not available.

Snow Depth

Station Depth Elevation

Earthquake Activity

City Distance Mag. Time & Date
Minimum magnitude displayed is 2.5.

Coastal Water Temperatures

Place Temperature

Nearby Weather Stations